Time;durP1;ratioP1;P1;durP2;ratioP2;P2;SDS_P1;SDS_P2;PMS_P1;PMS_P2;Temp;Humidity;BMP_temperature;BMP_pressure;BME280_temperature;BME280_humidity;BME280_pressure;Samples;Min_cycle;Max_cycle;Signal;HPM_P1;HPM_P2
2024/03/14 00:01:31;;;;;;;154.40;76.80;;;;;;;5.32;96.70;98685.83;436832;1250;99321;-40
2024/03/14 00:11:35;;;;;;;187.10;94.90;;;;;;;5.40;96.80;98684.73;437281;1250;108153;-39
2024/03/14 00:21:41;;;;;;;229.30;115.70;;;;;;;5.27;96.88;98680.09;437027;1250;99214;-39
2024/03/14 00:31:47;;;;;;;174.50;96.20;;;;;;;5.28;97.03;98677.35;437075;1249;111503;-40
2024/03/14 00:41:51;;;;;;;189.20;95.50;;;;;;;5.30;96.80;98668.36;436884;1247;107586;-40
2024/03/14 00:51:57;;;;;;;238.00;121.30;;;;;;;5.37;97.27;98660.64;436975;1250;99259;-40
2024/03/14 01:02:02;;;;;;;261.90;125.20;;;;;;;5.28;96.96;98654.19;437195;1251;108283;-39
2024/03/14 01:22:09;;;;;;;226.10;118.00;;;;;;;4.98;96.95;98642.40;437132;1250;111722;-40
2024/03/14 01:32:14;;;;;;;202.70;106.40;;;;;;;4.97;96.91;98637.27;437023;1250;109127;-38
2024/03/14 01:42:18;;;;;;;211.00;110.40;;;;;;;5.07;97.24;98630.50;436156;1251;98689;-39
2024/03/14 01:52:24;;;;;;;253.00;126.00;;;;;;;5.06;97.25;98622.19;436359;1251;108712;-39
2024/03/14 02:12:33;;;;;;;198.60;109.60;;;;;;;4.84;97.13;98623.00;436235;1247;111106;-40
2024/03/14 02:22:36;;;;;;;180.70;103.60;;;;;;;4.88;97.16;98612.90;436309;1247;107510;-41
2024/03/14 02:32:47;;;;;;;160.20;85.60;;;;;;;5.02;97.68;98613.95;436753;1247;98840;31
2024/03/14 02:42:53;;;;;;;170.70;86.10;;;;;;;5.16;97.64;98615.98;435167;1252;107915;-40
2024/03/14 02:52:57;;;;;;;164.10;86.00;;;;;;;5.12;97.71;98617.17;434999;1251;99386;-39
2024/03/14 03:03:02;;;;;;;170.00;86.40;;;;;;;5.02;97.60;98617.95;435034;1251;111759;-40
2024/03/14 03:13:06;;;;;;;148.70;79.80;;;;;;;4.97;97.61;98617.98;435033;1252;107252;-39
2024/03/14 03:23:12;;;;;;;135.30;72.00;;;;;;;4.99;97.51;98615.07;435122;1255;98822;-39
2024/03/14 03:53:25;;;;;;;122.80;64.50;;;;;;;4.99;97.96;98619.61;435129;1258;111005;-40
2024/03/14 04:03:30;;;;;;;151.60;77.40;;;;;;;4.96;97.91;98618.71;435172;1254;106831;-42
2024/03/14 04:13:35;;;;;;;139.00;71.50;;;;;;;4.80;97.94;98624.91;435258;1254;99330;-40
2024/03/14 04:23:40;;;;;;;123.00;63.90;;;;;;;4.75;98.18;98625.58;434678;1251;491233;-39
2024/03/14 04:43:49;;;;;;;109.80;59.80;;;;;;;4.88;98.82;98635.27;435689;1258;111964;-39
2024/03/14 04:53:53;;;;;;;120.10;64.60;;;;;;;4.97;98.64;98646.90;434933;1250;107489;-39
2024/03/14 05:03:58;;;;;;;153.40;79.00;;;;;;;4.79;98.28;98650.54;435169;1251;98049;-39
2024/03/14 05:14:02;;;;;;;180.00;86.20;;;;;;;4.63;98.49;98656.35;435132;1251;107574;-39
2024/03/14 05:24:08;;;;;;;132.30;73.20;;;;;;;4.54;98.21;98659.27;435593;1255;98379;-38
2024/03/14 05:34:12;;;;;;;147.00;73.60;;;;;;;4.45;97.86;98664.03;435087;1254;111381;-39
2024/03/14 05:44:17;;;;;;;134.90;68.50;;;;;;;4.41;98.01;98661.48;434975;1250;108220;-39
2024/03/14 05:54:21;;;;;;;169.00;86.40;;;;;;;4.47;98.46;98676.60;435227;1250;98545;-38
2024/03/14 06:04:25;;;;;;;175.30;88.40;;;;;;;4.57;98.97;98682.77;435327;1254;108775;-39
2024/03/14 06:14:30;;;;;;;144.20;77.60;;;;;;;4.85;98.96;98677.37;435252;1256;99314;-39
2024/03/14 06:24:34;;;;;;;133.40;73.70;;;;;;;5.13;98.99;98672.66;435116;1251;111829;-39
2024/03/14 06:44:43;;;;;;;161.60;80.10;;;;;;;5.92;99.28;98679.84;435207;1252;99323;-40
2024/03/14 06:54:48;;;;;;;152.50;78.70;;;;;;;6.26;99.41;98689.21;435147;1254;107351;-39
2024/03/14 07:04:54;;;;;;;121.50;67.10;;;;;;;6.52;99.00;98687.42;434894;1254;98503;-39
2024/03/14 07:15:00;;;;;;;133.00;71.60;;;;;;;6.82;98.81;98689.75;435134;1250;112660;-39
2024/03/14 07:35:13;;;;;;;149.40;78.30;;;;;;;7.59;99.56;98702.02;435105;1251;99248;-40
2024/03/14 07:45:22;;;;;;;148.90;82.20;;;;;;;7.75;98.74;98697.31;435166;1254;107986;-39
2024/03/14 07:55:27;;;;;;;117.70;66.60;;;;;;;7.87;98.40;98688.95;435095;1255;97983;-39
2024/03/14 08:15:41;;;;;;;119.80;65.20;;;;;;;9.01;99.04;98674.33;435171;1254;107615;-40
2024/03/14 08:25:47;;;;;;;96.30;55.00;;;;;;;9.95;98.27;98677.23;435218;1250;98749;-40
2024/03/14 08:45:56;;;;;;;55.70;35.70;;;;;;;10.81;94.53;98689.66;435613;1254;99250;-39
2024/03/14 08:56:01;;;;;;;54.40;33.30;;;;;;;11.07;93.07;98693.36;435254;1254;112783;-40
2024/03/14 09:16:12;;;;;;;42.90;27.80;;;;;;;11.39;90.18;98703.01;435492;1252;97981;-40
2024/03/14 09:26:17;;;;;;;36.50;23.20;;;;;;;11.58;89.65;98700.15;435062;1255;107648;-39
2024/03/14 09:36:21;;;;;;;40.20;24.00;;;;;;;11.60;87.69;98702.54;435139;1254;97965;-40
2024/03/14 09:46:26;;;;;;;31.20;20.60;;;;;;;11.74;87.12;98696.95;435926;1250;112664;-40
2024/03/14 09:56:30;;;;;;;30.20;19.50;;;;;;;11.98;85.11;98695.66;435321;1250;107823;-39
2024/03/14 10:06:40;;;;;;;27.90;17.90;;;;;;;12.48;82.25;98690.55;435695;1250;98819;-39
2024/03/14 10:36:54;;;;;;;19.30;13.60;;;;;;;12.97;75.22;98672.85;435952;1251;112333;-39
2024/03/14 10:46:59;;;;;;;30.10;18.40;;;;;;;12.41;72.92;98677.01;435576;1254;107462;-39
2024/03/14 10:57:05;;;;;;;27.00;15.00;;;;;;;11.80;71.38;98674.81;436175;1250;99266;-40
2024/03/14 11:07:09;;;;;;;25.10;13.70;;;;;;;12.03;71.98;98677.80;435511;1254;108817;-40
2024/03/14 11:17:14;;;;;;;24.70;15.20;;;;;;;12.02;70.05;98678.84;435336;1250;98815;-40
2024/03/14 11:37:23;;;;;;;21.30;14.90;;;;;;;11.65;70.04;98667.00;435579;1250;107109;-39
2024/03/14 11:47:50;;;;;;;19.40;13.60;;;;;;;11.86;71.13;98664.17;435160;1250;99224;-41
2024/03/14 11:57:55;;;;;;;20.00;14.20;;;;;;;11.78;69.27;98652.11;435608;1254;106785;-39
2024/03/14 12:18:04;;;;;;;20.90;14.80;;;;;;;11.73;69.88;98642.92;435177;1254;110848;-39
2024/03/14 12:28:09;;;;;;;22.60;16.00;;;;;;;11.72;69.55;98640.09;435552;1254;109452;-39
2024/03/14 12:38:17;;;;;;;24.90;16.20;;;;;;;11.73;69.76;98634.23;435527;1250;99202;-40
2024/03/14 12:48:21;;;;;;;31.90;19.10;;;;;;;11.72;69.96;98629.29;435466;1254;108179;-40
2024/03/14 12:58:26;;;;;;;34.50;19.60;;;;;;;11.68;69.03;98625.63;435650;1250;99238;-40
2024/03/14 13:08:34;;;;;;;26.40;18.30;;;;;;;11.71;68.69;98622.54;435609;1254;111358;-40
2024/03/14 13:18:39;;;;;;;24.10;15.70;;;;;;;11.69;67.93;98615.42;435159;1254;108684;-40
2024/03/14 13:28:44;;;;;;;25.70;15.90;;;;;;;11.74;68.20;98612.05;435236;1250;99243;-40
2024/03/14 13:38:49;;;;;;;25.30;15.10;;;;;;;11.84;68.45;98608.20;435104;1250;109387;-40
2024/03/14 13:48:53;;;;;;;22.20;14.30;;;;;;;11.81;68.23;98593.98;435298;1251;99925;-39
2024/03/14 13:58:58;;;;;;;23.50;14.90;;;;;;;11.86;68.15;98591.48;435307;1250;112097;-41
2024/03/14 14:09:05;;;;;;;22.20;13.70;;;;;;;11.96;68.09;98592.82;435102;1255;109518;-41
2024/03/14 14:19:10;;;;;;;23.40;16.00;;;;;;;11.90;67.71;98592.24;435237;1251;99212;-41
2024/03/14 14:29:15;;;;;;;24.70;16.20;;;;;;;11.84;67.11;98583.86;435206;1256;107807;-40
2024/03/14 14:39:19;;;;;;;32.70;20.30;;;;;;;11.70;67.52;98577.86;435266;1254;99214;-40
2024/03/14 14:59:29;;;;;;;26.20;16.60;;;;;;;11.36;67.85;98579.16;435126;1255;107921;-39
2024/03/14 15:09:34;;;;;;;26.20;16.80;;;;;;;11.12;67.20;98570.45;435222;1256;99197;-39
2024/03/14 15:29:43;;;;;;;28.90;17.50;;;;;;;10.88;68.03;98575.89;435091;1250;99320;-38
2024/03/14 15:39:46;;;;;;;27.80;18.30;;;;;;;10.82;68.20;98576.89;435274;1250;111841;-39
2024/03/14 15:59:55;;;;;;;29.00;17.90;;;;;;;10.62;68.77;98571.97;435084;1251;99415;-40
2024/03/14 16:10:00;;;;;;;25.00;17.40;;;;;;;10.31;68.68;98572.41;435302;1255;108398;-39
2024/03/14 16:40:17;;;;;;;39.90;21.80;;;;;;;9.40;69.95;98581.39;435220;1256;108494;-40
2024/03/14 17:10:29;;;;;;;45.30;24.40;;;;;;;8.69;70.94;98584.67;435108;1256;108562;-40
2024/03/14 17:20:35;;;;;;;45.50;26.70;;;;;;;8.51;71.48;98589.20;435075;1251;97993;-39
2024/03/14 17:31:17;;;;;;;47.40;27.10;;;;;;;8.24;71.86;98597.11;422167;1297;637259;-39
2024/03/14 17:41:23;;;;;;;59.00;31.60;;;;;;;7.91;72.10;98602.24;432456;1264;391564;-40
2024/03/14 18:11:44;;;;;;;51.70;29.40;;;;;;;7.40;73.19;98611.89;433134;1264;95785;-40
2024/03/14 18:21:52;;;;;;;50.70;29.00;;;;;;;7.26;73.50;98613.11;433174;1264;107405;-40
2024/03/14 18:31:59;;;;;;;53.00;31.70;;;;;;;7.10;74.06;98607.80;433117;1260;108413;-41
2024/03/14 18:52:12;;;;;;;59.30;34.10;;;;;;;6.70;74.71;98608.51;432723;1260;95645;-40
2024/03/14 19:02:20;;;;;;;79.90;38.90;;;;;;;6.57;75.06;98610.33;432588;1258;109081;-40
2024/03/14 19:22:33;;;;;;;104.60;54.50;;;;;;;6.21;75.88;98611.29;432541;1259;97992;-40
2024/03/14 19:32:39;;;;;;;98.20;51.50;;;;;;;5.98;76.55;98614.55;432657;1259;110732;-39
2024/03/14 19:42:46;;;;;;;97.00;49.60;;;;;;;5.76;76.87;98618.04;432591;1259;108259;-39
2024/03/14 19:52:53;;;;;;;86.10;46.10;;;;;;;5.65;77.33;98618.44;432556;1263;97898;-39
2024/03/14 20:03:00;;;;;;;84.00;46.80;;;;;;;5.58;77.61;98619.80;432602;1263;110414;-41
2024/03/14 20:13:07;;;;;;;90.80;47.80;;;;;;;5.47;78.13;98615.67;432528;1263;108677;-39
2024/03/14 20:23:14;;;;;;;109.40;53.10;;;;;;;5.32;78.71;98607.50;432583;1263;96641;-40
2024/03/14 20:33:19;;;;;;;110.90;59.50;;;;;;;5.13;79.28;98601.77;433976;1256;110312;-39
2024/03/14 20:43:25;;;;;;;96.80;52.80;;;;;;;4.96;79.56;98599.65;433979;1260;107367;-41
2024/03/14 20:53:31;;;;;;;114.90;55.90;;;;;;;4.83;79.76;98597.16;434007;1256;97497;-38
2024/03/14 21:03:38;;;;;;;107.30;54.10;;;;;;;4.71;80.12;98605.18;433939;1256;109374;-39
2024/03/14 21:13:45;;;;;;;119.00;56.50;;;;;;;4.60;80.55;98602.34;433963;1257;98008;-38
2024/03/14 21:23:51;;;;;;;126.20;61.30;;;;;;;4.51;81.07;98601.69;433944;1260;110708;-39
2024/03/14 21:33:58;;;;;;;135.20;65.40;;;;;;;4.36;81.60;98607.13;434020;1256;109236;-38
2024/03/14 21:54:12;;;;;;;86.60;43.70;;;;;;;4.29;83.16;98595.90;434120;1257;107688;-39
2024/03/14 22:14:23;;;;;;;77.20;42.30;;;;;;;4.22;84.63;98592.80;433985;1260;110758;-38
2024/03/14 22:24:28;;;;;;;71.00;39.50;;;;;;;4.14;84.73;98596.50;433924;1256;107571;-39
2024/03/14 22:34:35;;;;;;;87.70;44.80;;;;;;;4.01;84.86;98598.11;434016;1260;97922;-39
2024/03/14 22:44:41;;;;;;;82.60;45.00;;;;;;;3.86;84.85;98591.70;434032;1256;108215;-39
2024/03/14 22:54:48;;;;;;;80.70;45.60;;;;;;;3.70;85.10;98586.27;433919;1260;97571;-39
2024/03/14 23:15:00;;;;;;;119.80;59.40;;;;;;;3.34;85.74;98574.90;434029;1256;108419;-39
2024/03/14 23:25:08;;;;;;;83.50;45.00;;;;;;;3.26;85.85;98571.94;434298;1255;96628;-39
2024/03/14 23:35:18;;;;;;;87.30;45.80;;;;;;;3.25;85.98;98571.04;434001;1260;107855;-39
2024/03/14 23:45:25;;;;;;;84.40;44.00;;;;;;;3.23;86.45;98566.20;434129;1260;97863;-38
2024/03/14 23:55:31;;;;;;;78.60;41.10;;;;;;;3.19;86.84;98563.88;434051;1260;110266;-39
